Weather observations for the past three days for
Topeka, Forbes Field
Imperial (Metric)
Date Time (cdt) Wind (mph) Vis. (mi.) Weather Sky Cond. Temperature (ºF) Relative Humidity Wind Chill (°F) Heat Index (°F) Pressure Precipitation (in)
Air Dwpt 6 hour altimeter (in) sea level (mb) 1 hr 3 hr 6 hr
Max. Min.
02 22:53 S 7 10.00 Fair CLR 81 64 57% 83 29.9 1011.1
02 21:53 SE 7 10.00 Fair CLR 81 64.9 58% 83 29.9 1011.2
02 20:53 SE 6 10.00 Fair CLR 84 66 55% 86 29.89 1010.7
02 19:53 SE 7 10.00 Fair CLR 87.1 66 50% 89 29.87 1010.3
02 18:53 S 8 10.00 Fair CLR 96.1 64 100 96.1 35% 98 29.87 1010.0
02 17:53 S 13 10.00 Fair CLR 99 63 31% 101 29.87 1010.2
02 16:53 S 13 G 25 10.00 Fair CLR 100 63 30% 102 29.88 1010.4
02 15:53 SW 14 G 24 10.00 A Few Clouds FEW080 100 62.1 29% 102 29.9 1011.0
02 14:53 S 14 G 24 10.00 A Few Clouds FEW100 100 64 31% 103 29.92 1011.7
02 13:53 S 13 G 21 10.00 Fair CLR 99 66.9 35% 104 29.94 1012.4
02 12:53 S 15 G 22 10.00 Fair CLR 97 68 97 75 39% 102 29.96 1013.2
02 11:53 S 16 10.00 Fair CLR 95 68 41% 100 29.97 1013.6
02 10:53 SW 13 G 24 10.00 Fair CLR 91 66.9 45% 94 29.98 1013.8
02 09:53 S 12 10.00 Fair CLR 86 66.9 53% 89 29.98 1013.8
02 08:53 S 13 10.00 Partly Cloudy SCT110 82 64.9 56% 84 29.99 1014.2
02 07:53 S 7 10.00 Fair CLR 77 64.9 66% 79 29.98 1014.0
02 06:53 S 9 10.00 Fair CLR 75 64 78.1 73 69% 77 29.97 1013.4
02 05:53 S 8 10.00 Fair CLR 75 64 69% 77 29.96 1013.1
02 04:53 SW 6 10.00 Fair CLR 75 64 69% 77 29.96 1013.1
02 03:53 S 8 10.00 Fair CLR 75.9 64 67% 78 29.94 1012.4
02 02:53 S 7 10.00 Fair CLR 75.9 64 67% 78 29.94 1012.3
02 01:53 S 8 10.00 Fair CLR 78.1 63 60% 80 29.94 1012.2
02 00:53 S 8 10.00 Fair CLR 78.1 63 95 77 60% 80 29.94 1012.5
01 23:53 S 8 10.00 Fair CLR 81 62.1 53% 82 29.94 1012.5
01 22:53 S 9 10.00 Fair CLR 82.9 62.1 49% 84 29.94 1012.6
01 21:53 S 7 10.00 Fair CLR 80.1 63 56% 81 29.93 1012.2
01 20:53 S 9 10.00 Fair CLR 81 64 57% 83 29.92 1012.0
01 19:53 S 6 10.00 Fair CLR 86 63 46% 87 29.91 1011.6
01 18:53 S 8 10.00 Fair CLR 95 61 100.9 95 32% 95 29.92 1011.7
01 17:53 S 13 10.00 Fair CLR 98.1 60.1 28% 98 29.92 1011.8
01 16:53 S 16 G 25 10.00 Fair CLR 100 57.9 25% 100 29.92 1011.7
01 15:53 S 13 G 25 10.00 Fair CLR 100 57.9 25% 100 29.93 1012.2
01 14:53 SW 12 10.00 Fair CLR 100 61 28% 101 29.95 1012.9
01 13:53 S 15 10.00 Fair CLR 99 64 32% 102 29.97 1013.3
01 12:53 SW 13 G 24 10.00 Fair CLR 96.1 64 96.1 71.1 35% 98 29.99 1014.1
01 11:53 SW 14 10.00 Fair CLR 93 63 37% 94 30.01 1014.7
01 10:53 S 13 10.00 A Few Clouds FEW100 91 63 39% 92 30.01 1014.7
01 09:53 S 13 10.00 Partly Cloudy SCT100 87.1 62.1 43% 88 30.01 1014.8
01 08:53 S 12 10.00 A Few Clouds FEW100 81 63 54% 82 30.02 1015.2
01 07:53 S 8 9.00 Fair CLR 75 63 66% 77 30.01 1014.9
01 06:53 S 6 10.00 Fair CLR 71.1 62.1 77 70 73% 30 1014.5
01 05:53 S 6 10.00 Fair CLR 72 62.1 71% 29.99 1014.1
01 04:53 S 8 10.00 Fair CLR 72 62.1 71% 29.98 1013.6
01 03:53 S 7 10.00 Fair CLR 75.9 62.1 62% 78 29.97 1013.3
01 02:53 S 8 10.00 Fair CLR 75.9 62.1 62% 78 29.96 1013.2
01 01:53 S 5 10.00 Fair CLR 75 62.1 64% 77 29.97 1013.4
01 00:53 S 7 10.00 Fair CLR 77 62.1 96.1 77 60% 79 29.97 1013.5
31 23:53 S 5 10.00 Fair CLR 78.1 62.1 58% 80 29.97 1013.6
31 22:53 S 8 10.00 Fair CLR 80.1 62.1 54% 81 29.96 1013.0
31 21:53 S 6 10.00 Fair CLR 79 64 60% 81 29.95 1012.9
31 20:53 SE 7 10.00 Fair CLR 82 66 58% 84 29.93 1012.2
31 18:53 S 7 10.00 Fair CLR 96.1 64 100.9 95 35% 98 29.92 1011.6
31 17:53 S 14 G 20 10.00 Fair CLR 100 63 30% 102 29.91 1011.6
31 16:53 S 10 10.00 Fair CLR 100 64 31% 103 29.92 1011.6
31 15:53 S 12 G 22 10.00 Fair CLR 100 64 31% 103 29.93 1012.0
31 14:53 SW 14 G 23 10.00 Fair CLR 98.1 64.9 34% 101 29.94 1012.4
31 13:53 SW 16 G 23 10.00 Fair CLR 98.1 64.9 34% 101 29.95 1012.6
31 12:53 SW 16 10.00 Fair CLR 95 64.9 96.1 75 37% 98 29.96 1013.0
31 11:53 SW 13 10.00 Fair CLR 91.9 64.9 41% 94 29.97 1013.3
31 10:53 SW 13 10.00 Fair CLR 89.1 64 43% 90 29.98 1013.7
31 09:53 SW 9 10.00 Fair CLR 84 64 51% 85 29.98 1013.7
31 08:53 S 13 10.00 Fair CLR 81 63 54% 82 29.99 1014.1
31 07:53 S 12 10.00 Mostly Cloudy BKN120 75.9 62.1 62% 78 29.97 1013.7
31 06:53 S 9 10.00 Fair CLR 75 62.1 84.9 75 64% 77 29.95 1012.8
31 05:53 S 8 10.00 Fair CLR 75.9 62.1 62% 78 29.94 1012.5
31 04:53 S 10 10.00 Fair CLR 78.1 62.1 58% 80 29.92 1011.6
31 03:53 S 10 10.00 Fair CLR 80.1 61 52% 81 29.9 1011.0
31 02:53 S 9 10.00 NULL NULL 81 61 51% 82 29.89 1010.6
31 01:53 S 12 10.00 Fair CLR 82.9 61 48% 83 29.9 1010.8
31 00:53 S 12 10.00 Fair CLR 84.9 61 97 84 45% 85 29.87 1010.1
30 23:53 S 13 10.00 Fair CLR 84.9 61 45% 85 29.86 1009.7
Date Time (cdt) Wind (mph) Vis. (mi.) Weather Sky Cond. Air Dwpt Max. Min. Relative Humidity Wind Chill (°F) Heat Index (°F) altimeter (in) sea level (mb) 1 hr 3 hr 6 hr
6 hour
Temperature (ºF) Pressure Precipitation (in)